Time;durP1;ratioP1;P1;durP2;ratioP2;P2;SDS_P1;SDS_P2;PMS_P1;PMS_P2;Temp;Humidity;BMP_temperature;BMP_pressure;BME280_temperature;BME280_humidity;BME280_pressure;Samples;Min_cycle;Max_cycle;Signal;HPM_P1;HPM_P2
2022/12/13 00:01:35;;;;;;;32.47;14.30;;;-4.40;99.90;;;;;;5069832;28;20044;-45
2022/12/13 00:04:04;;;;;;;36.13;14.30;;;-4.40;99.90;;;;;;5071621;28;20038;-47
2022/12/13 00:06:30;;;;;;;38.38;15.07;;;-4.40;99.90;;;;;;5071400;28;20037;-45
2022/12/13 00:08:57;;;;;;;45.88;15.40;;;-4.50;99.90;;;;;;5071488;28;20033;-42
2022/12/13 00:11:23;;;;;;;36.35;15.48;;;-4.50;99.90;;;;;;5070841;28;20083;-44
2022/12/13 00:13:49;;;;;;;36.20;14.27;;;-4.30;99.90;;;;;;5052938;28;20084;-42
2022/12/13 00:16:17;;;;;;;36.00;14.93;;;-4.50;99.90;;;;;;5069515;28;20043;-44
2022/12/13 00:18:47;;;;;;;42.28;16.20;;;-4.50;99.90;;;;;;5071096;28;20048;-48
2022/12/13 00:21:15;;;;;;;39.25;15.02;;;-4.40;99.90;;;;;;5052839;28;20047;-43
2022/12/13 00:23:40;;;;;;;37.33;15.48;;;-3.80;99.90;;;;;;5052376;28;20483;-44
2022/12/13 00:26:10;;;;;;;35.33;14.07;;;-4.50;99.90;;;;;;5071047;28;20037;-44
2022/12/13 00:28:37;;;;;;;32.55;13.93;;;-4.60;99.90;;;;;;5071323;28;20036;-45
2022/12/13 00:31:03;;;;;;;41.30;15.02;;;-4.60;99.90;;;;;;5070850;28;20090;-45
2022/12/13 00:33:29;;;;;;;35.13;13.85;;;-4.60;99.90;;;;;;5070831;28;20391;-44
2022/12/13 00:35:56;;;;;;;40.95;15.57;;;-4.60;99.90;;;;;;5070574;28;20045;-43
2022/12/13 00:38:23;;;;;;;32.50;14.07;;;-4.60;99.90;;;;;;5069995;28;20108;-45
2022/12/13 00:40:50;;;;;;;34.47;14.55;;;-4.60;99.90;;;;;;5070559;28;20373;-44
2022/12/13 00:43:16;;;;;;;31.40;13.20;;;-4.70;99.90;;;;;;5070682;28;20051;-44
2022/12/13 00:45:42;;;;;;;32.75;14.50;;;-4.70;99.90;;;;;;5069973;28;20127;-43
2022/12/13 00:48:08;;;;;;;34.60;14.32;;;-4.80;99.90;;;;;;5070289;28;20051;-44
2022/12/13 00:50:34;;;;;;;30.95;13.45;;;-4.70;99.90;;;;;;5070399;28;20044;-46
2022/12/13 00:53:00;;;;;;;31.27;14.02;;;-4.80;99.90;;;;;;5070509;28;20036;-46
2022/12/13 00:55:26;;;;;;;33.75;14.70;;;-4.80;99.90;;;;;;5052019;28;20527;-47
2022/12/13 00:57:52;;;;;;;38.70;15.40;;;-4.70;99.90;;;;;;5070429;28;20119;-47
2022/12/13 01:00:18;;;;;;;36.60;14.65;;;-4.70;99.90;;;;;;5070512;28;20051;-45
2022/12/13 01:02:44;;;;;;;35.67;14.75;;;-4.80;99.90;;;;;;5070284;28;20051;-44
2022/12/13 01:05:11;;;;;;;30.13;13.65;;;-4.80;99.90;;;;;;5069957;28;20044;-44
2022/12/13 01:07:37;;;;;;;33.05;13.70;;;-4.80;99.90;;;;;;5070287;28;20494;-45
2022/12/13 01:10:07;;;;;;;33.00;14.13;;;-4.90;99.90;;;;;;5070348;28;20041;-45
2022/12/13 01:12:33;;;;;;;27.48;13.50;;;-4.80;99.90;;;;;;5069923;28;20028;-44
2022/12/13 01:14:59;;;;;;;36.03;14.18;;;-4.80;99.90;;;;;;5069496;28;20028;-45
2022/12/13 01:17:25;;;;;;;30.17;13.55;;;-4.90;99.90;;;;;;5070401;28;20036;-46
2022/12/13 01:19:51;;;;;;;30.88;14.20;;;-4.80;99.90;;;;;;5050904;28;20450;-44
2022/12/13 01:22:16;;;;;;;34.92;13.52;;;-4.90;99.90;;;;;;5052072;28;20380;-46
2022/12/13 01:24:42;;;;;;;32.00;14.20;;;-5.00;99.90;;;;;;5069007;28;20036;-43
2022/12/13 01:27:08;;;;;;;31.50;13.40;;;-5.00;99.90;;;;;;5068906;28;20028;-43
2022/12/13 01:29:34;;;;;;;35.28;13.98;;;-5.00;99.90;;;;;;5069967;28;20039;-45
2022/12/13 01:31:59;;;;;;;33.17;13.13;;;-4.40;99.90;;;;;;5070148;28;20059;-43
2022/12/13 01:34:26;;;;;;;28.02;11.85;;;-5.00;99.90;;;;;;5070084;28;20058;-43
2022/12/13 01:36:52;;;;;;;31.73;13.43;;;-5.10;99.90;;;;;;5069907;28;20063;-45
2022/12/13 01:39:18;;;;;;;35.30;12.75;;;-5.10;99.90;;;;;;5069742;28;20041;-42
2022/12/13 01:41:47;;;;;;;30.92;13.38;;;-5.20;99.90;;;;;;5069748;28;20094;-46
2022/12/13 01:44:56;;;;;;;32.38;14.15;;;-5.10;99.90;;;;;;5069477;28;20084;-43
2022/12/13 01:47:40;;;;;;;34.10;13.10;;;-5.10;99.90;;;;;;5051576;28;20036;-44
2022/12/13 01:50:11;;;;;;;33.50;13.25;;;-5.10;99.90;;;;;;5070152;28;20090;-44
2022/12/13 01:52:38;;;;;;;37.45;13.35;;;-5.10;99.90;;;;;;5069895;28;20068;-44
2022/12/13 01:55:06;;;;;;;29.95;13.38;;;-5.10;99.90;;;;;;5069504;28;20047;-44
2022/12/13 01:57:35;;;;;;;33.38;14.15;;;-5.00;99.90;;;;;;5069480;28;20086;-45
2022/12/13 02:00:01;;;;;;;31.48;13.73;;;-5.10;99.90;;;;;;5068192;28;20043;-46
2022/12/13 02:02:27;;;;;;;31.23;14.15;;;-5.10;99.90;;;;;;5069588;28;20040;-46
2022/12/13 02:05:42;;;;;;;40.65;14.57;;;-5.10;99.90;;;;;;5069652;28;20032;-45
2022/12/13 02:08:10;;;;;;;33.65;13.13;;;-5.00;99.90;;;;;;5039250;28;20043;-46
2022/12/13 02:10:36;;;;;;;33.22;14.13;;;-5.00;99.90;;;;;;5068873;28;20036;-43
2022/12/13 02:13:02;;;;;;;41.70;14.73;;;-5.10;99.90;;;;;;5069034;28;20520;-44
2022/12/13 02:15:56;;;;;;;35.13;14.82;;;-5.00;99.90;;;;;;5069060;28;20476;-43
2022/12/13 02:18:31;;;;;;;38.17;14.65;;;-5.00;99.90;;;;;;5066498;28;20054;-44
2022/12/13 02:21:07;;;;;;;36.42;14.35;;;-5.10;99.90;;;;;;5072690;28;20068;-43
2022/12/13 02:23:54;;;;;;;40.90;15.05;;;-5.00;99.90;;;;;;5073178;28;20033;-44
2022/12/13 02:26:53;;;;;;;36.35;15.23;;;-4.90;99.90;;;;;;5072261;28;20111;-46
2022/12/13 02:29:49;;;;;;;32.45;13.57;;;-4.90;99.90;;;;;;5072017;28;20086;-44
2022/12/13 02:32:38;;;;;;;36.80;14.80;;;-5.00;99.90;;;;;;5073114;28;20041;-43
2022/12/13 02:35:16;;;;;;;37.70;14.65;;;-5.10;99.90;;;;;;5072859;28;20051;-42
2022/12/13 02:37:49;;;;;;;40.40;15.35;;;-5.00;99.90;;;;;;5072325;28;20093;-43
2022/12/13 02:40:26;;;;;;;37.92;15.95;;;-5.10;99.90;;;;;;5073196;28;20073;-44
2022/12/13 02:43:03;;;;;;;43.42;16.73;;;-5.10;99.90;;;;;;5072605;28;20037;-45
2022/12/13 02:45:48;;;;;;;39.78;15.50;;;-5.00;99.90;;;;;;5060811;28;20041;-44
2022/12/13 02:48:18;;;;;;;37.83;15.60;;;-5.20;99.90;;;;;;5054553;28;20047;-45
2022/12/13 02:50:45;;;;;;;42.97;15.38;;;-5.10;99.90;;;;;;5072926;28;20032;-46
2022/12/13 02:53:12;;;;;;;33.80;15.07;;;-3.00;99.90;;;;;;5071852;28;20554;-45
2022/12/13 02:55:39;;;;;;;34.95;15.65;;;-5.20;99.90;;;;;;5072332;28;20052;-44
2022/12/13 02:58:05;;;;;;;39.38;15.30;;;-5.20;99.90;;;;;;5072276;28;20051;-44
2022/12/13 03:00:46;;;;;;;41.20;15.48;;;-5.20;99.90;;;;;;5072763;28;20044;-44
2022/12/13 03:03:33;;;;;;;41.83;16.50;;;-5.30;99.90;;;;;;5071713;28;20037;-47
2022/12/13 03:06:35;;;;;;;40.38;15.57;;;-5.30;99.90;;;;;;5072627;28;20359;-47
2022/12/13 03:09:09;;;;;;;39.20;16.70;;;-5.20;99.90;;;;;;5071906;28;20037;-45
2022/12/13 03:15:26;;;;;;;40.30;15.95;;;-5.10;99.90;;;;;;5071816;28;20049;-45
2022/12/13 03:18:05;;;;;;;36.90;16.02;;;-5.20;99.90;;;;;;5072473;28;20040;-42
2022/12/13 03:20:31;;;;;;;39.08;16.52;;;-5.10;99.90;;;;;;5071258;28;20091;-43
2022/12/13 03:22:57;;;;;;;45.25;15.38;;;-5.20;99.90;;;;;;5072216;28;20438;-45
2022/12/13 03:25:26;;;;;;;41.10;16.17;;;-5.20;99.90;;;;;;5072259;28;20122;-45
2022/12/13 03:27:52;;;;;;;43.05;16.05;;;-5.20;99.90;;;;;;5071881;28;20036;-44
2022/12/13 03:30:18;;;;;;;35.78;15.68;;;-5.20;99.90;;;;;;5071733;28;20120;-44
2022/12/13 03:32:43;;;;;;;39.15;17.00;;;-5.10;99.90;;;;;;5072271;28;20112;-45
2022/12/13 03:35:09;;;;;;;42.58;17.08;;;-5.30;99.90;;;;;;5072227;28;20121;-46
2022/12/13 03:37:35;;;;;;;40.58;16.63;;;-5.30;99.90;;;;;;5071898;28;20036;-44
2022/12/13 03:40:01;;;;;;;41.40;15.13;;;-5.20;99.90;;;;;;5071262;28;20475;-44
2022/12/13 03:42:27;;;;;;;36.95;15.57;;;-5.20;99.90;;;;;;5052984;28;20105;-46
2022/12/13 03:44:52;;;;;;;38.28;14.95;;;-5.30;99.90;;;;;;5071639;28;20468;-42
2022/12/13 03:47:18;;;;;;;40.67;17.02;;;-5.30;99.90;;;;;;5071804;28;20036;-43
2022/12/13 03:49:44;;;;;;;36.92;14.73;;;-5.40;99.90;;;;;;5071562;28;20072;-44
2022/12/13 03:52:09;;;;;;;39.05;15.88;;;-5.30;99.90;;;;;;5070421;28;20105;-45
2022/12/13 03:54:35;;;;;;;35.75;15.25;;;-5.40;99.90;;;;;;5071727;28;20045;-45
2022/12/13 03:57:01;;;;;;;37.58;15.07;;;-5.40;99.90;;;;;;5070075;28;20060;-44
2022/12/13 03:59:26;;;;;;;35.92;15.48;;;-5.40;99.90;;;;;;5071538;28;20479;-45
2022/12/13 04:01:52;;;;;;;36.63;15.00;;;-5.40;99.90;;;;;;5071812;28;20472;-44
2022/12/13 04:04:18;;;;;;;43.63;15.57;;;-5.50;99.90;;;;;;5071593;28;20040;-44
2022/12/13 04:06:43;;;;;;;40.05;14.48;;;-5.50;99.90;;;;;;5071475;28;20139;-45
2022/12/13 04:09:09;;;;;;;38.10;15.57;;;-5.60;99.90;;;;;;5071405;28;20028;-44
2022/12/13 04:14:19;;;;;;;36.17;15.82;;;-5.60;99.90;;;;;;5070781;28;20403;-45
2022/12/13 04:16:45;;;;;;;29.58;13.90;;;-5.50;99.90;;;;;;5052954;28;20056;-45
2022/12/13 04:19:11;;;;;;;36.72;14.80;;;-5.50;99.90;;;;;;5071498;28;20032;-46
2022/12/13 04:21:36;;;;;;;35.78;14.48;;;-5.60;99.90;;;;;;5070813;28;20098;-44
2022/12/13 04:24:02;;;;;;;29.65;13.88;;;-5.60;99.90;;;;;;5069428;28;20042;-43
2022/12/13 04:26:28;;;;;;;32.30;14.50;;;-5.50;99.90;;;;;;5070823;28;20090;-43
2022/12/13 04:28:54;;;;;;;38.40;14.55;;;-5.60;99.90;;;;;;5051348;28;20078;-44
2022/12/13 04:31:19;;;;;;;36.75;14.30;;;-5.50;99.90;;;;;;5070815;28;20083;-44
2022/12/13 04:33:45;;;;;;;37.28;15.45;;;-5.60;99.90;;;;;;5070811;28;20048;-44
2022/12/13 04:36:18;;;;;;;35.97;14.93;;;-5.70;99.90;;;;;;5070745;28;20449;-43
2022/12/13 04:38:44;;;;;;;37.00;13.80;;;-5.70;99.90;;;;;;5070790;28;20033;-43
2022/12/13 04:41:16;;;;;;;35.05;13.65;;;-5.60;99.90;;;;;;5069928;28;20076;-43
2022/12/13 04:43:41;;;;;;;38.03;15.05;;;-5.70;99.90;;;;;;5053064;28;20116;-45
2022/12/13 04:46:07;;;;;;;35.35;15.38;;;-5.70;99.90;;;;;;5050784;28;20465;-44
2022/12/13 04:48:35;;;;;;;33.17;14.13;;;-5.70;99.90;;;;;;5069462;28;20040;-44
2022/12/13 04:51:01;;;;;;;32.67;13.52;;;-5.90;99.90;;;;;;5035736;28;20082;-45
2022/12/13 04:53:30;;;;;;;33.03;13.98;;;-5.80;99.90;;;;;;5070570;28;20032;-44
2022/12/13 04:55:56;;;;;;;35.80;14.77;;;-5.80;99.90;;;;;;5070162;28;20056;-45
2022/12/13 04:58:21;;;;;;;36.90;14.63;;;-5.90;99.90;;;;;;5070447;28;20564;-45
2022/12/13 05:00:47;;;;;;;39.42;15.32;;;-5.80;99.90;;;;;;5070614;28;20041;-44
2022/12/13 05:03:13;;;;;;;42.20;14.43;;;-5.80;99.90;;;;;;5070537;28;20040;-45
2022/12/13 05:05:39;;;;;;;33.75;15.15;;;-5.80;99.90;;;;;;5070569;28;20032;-44
2022/12/13 05:08:06;;;;;;;33.30;14.00;;;-5.90;99.90;;;;;;5069572;28;20336;-45
2022/12/13 05:10:32;;;;;;;34.38;14.20;;;-5.80;99.90;;;;;;5069217;28;20079;-44
2022/12/13 05:12:58;;;;;;;31.98;14.23;;;-5.90;99.90;;;;;;5070033;28;20063;-45
2022/12/13 05:15:24;;;;;;;33.90;16.33;;;-5.90;99.90;;;;;;5069886;28;20082;-44
2022/12/13 05:17:50;;;;;;;37.88;15.68;;;-5.90;99.90;;;;;;5070113;28;20040;-46
2022/12/13 05:20:15;;;;;;;42.47;17.52;;;-5.70;99.90;;;;;;5068759;28;20079;-44
2022/12/13 05:22:41;;;;;;;39.00;15.60;;;-5.80;99.90;;;;;;5070270;28;20040;-46
2022/12/13 05:25:07;;;;;;;43.15;16.58;;;-5.80;99.90;;;;;;5070244;28;20039;-44
2022/12/13 05:27:33;;;;;;;39.38;16.23;;;-5.80;99.90;;;;;;5069910;28;20376;-44
2022/12/13 05:29:59;;;;;;;37.88;15.20;;;-5.80;99.90;;;;;;5069049;28;20591;-43
2022/12/13 05:32:24;;;;;;;38.45;15.75;;;-5.80;99.90;;;;;;5035444;28;20395;-48
2022/12/13 05:34:50;;;;;;;40.25;16.30;;;-5.80;99.90;;;;;;5069564;28;20036;-44
2022/12/13 05:37:16;;;;;;;38.95;15.45;;;-5.80;99.90;;;;;;5070030;28;20094;-44
2022/12/13 05:39:41;;;;;;;38.90;15.88;;;-5.70;99.90;;;;;;5070111;28;20145;-43
2022/12/13 05:42:08;;;;;;;35.95;15.63;;;-5.80;99.90;;;;;;5069822;28;20072;-43
2022/12/13 05:44:34;;;;;;;40.05;16.25;;;-5.70;99.90;;;;;;5068807;28;20115;-45
2022/12/13 05:47:00;;;;;;;36.85;15.38;;;-5.70;99.90;;;;;;5070014;28;20432;-43
2022/12/13 05:49:26;;;;;;;39.17;15.82;;;-5.70;99.90;;;;;;5069871;28;20119;-45
2022/12/13 05:51:52;;;;;;;39.47;16.92;;;-5.60;99.90;;;;;;5072357;28;20044;-44
2022/12/13 05:54:17;;;;;;;49.72;16.85;;;-5.70;99.90;;;;;;5054820;28;20060;-44
2022/12/13 05:56:43;;;;;;;46.60;17.25;;;-5.60;99.90;;;;;;5072213;28;20121;-44
2022/12/13 05:59:09;;;;;;;45.42;18.50;;;-5.70;99.90;;;;;;5055497;28;20369;-45
2022/12/13 06:01:34;;;;;;;46.65;18.13;;;-5.20;99.90;;;;;;5073987;28;20407;-43
2022/12/13 06:04:00;;;;;;;39.40;15.90;;;-5.60;99.90;;;;;;5072284;28;20049;-44
2022/12/13 06:06:26;;;;;;;47.38;19.63;;;-5.50;99.90;;;;;;5073807;28;20036;-46
2022/12/13 06:08:51;;;;;;;49.22;18.77;;;-5.60;99.90;;;;;;5071258;28;20048;-43
2022/12/13 06:11:17;;;;;;;48.85;20.02;;;-5.60;99.90;;;;;;5055006;28;20032;-43
2022/12/13 06:13:43;;;;;;;46.60;19.10;;;-4.00;99.90;;;;;;5073721;28;20093;-43
2022/12/13 06:16:10;;;;;;;39.88;17.17;;;-5.50;99.90;;;;;;5072993;28;20079;-43
2022/12/13 06:18:36;;;;;;;46.35;18.15;;;-5.70;99.90;;;;;;5072317;28;20036;-42
2022/12/13 06:21:05;;;;;;;41.20;16.83;;;-5.70;99.90;;;;;;5073508;28;20029;-46
2022/12/13 06:23:32;;;;;;;39.97;15.88;;;-5.80;99.90;;;;;;5073522;28;20399;-45
2022/12/13 06:25:58;;;;;;;43.42;17.10;;;-5.70;99.90;;;;;;5073291;28;20043;-44
2022/12/13 06:28:23;;;;;;;39.22;16.60;;;-5.80;99.90;;;;;;5072911;28;20395;-46
2022/12/13 06:30:52;;;;;;;39.80;15.73;;;-5.80;99.90;;;;;;5073251;28;20093;-45
2022/12/13 06:33:18;;;;;;;40.22;16.92;;;-5.90;99.90;;;;;;5072995;28;20040;-43
2022/12/13 06:35:45;;;;;;;42.78;16.40;;;-5.90;99.90;;;;;;5073085;28;20134;-45
2022/12/13 06:38:12;;;;;;;50.75;17.50;;;-5.70;99.90;;;;;;5071421;28;20434;-44
2022/12/13 06:40:37;;;;;;;44.95;17.15;;;-5.80;99.90;;;;;;5073071;28;20365;-42
2022/12/13 06:43:04;;;;;;;44.63;17.50;;;-5.80;99.90;;;;;;5073063;28;20035;-45
2022/12/13 06:45:30;;;;;;;38.75;16.55;;;-5.70;99.90;;;;;;5072723;28;20038;-43
2022/12/13 06:47:56;;;;;;;43.78;16.80;;;-5.80;99.90;;;;;;5073090;28;20044;-44
2022/12/13 06:50:22;;;;;;;40.40;16.67;;;-5.90;99.90;;;;;;5073181;28;20033;-44
2022/12/13 06:52:48;;;;;;;41.15;16.85;;;-5.80;99.90;;;;;;5071558;28;20039;-45
2022/12/13 06:55:14;;;;;;;40.63;16.98;;;-6.00;99.90;;;;;;5054501;28;20052;-46
2022/12/13 06:57:40;;;;;;;40.53;16.92;;;-6.00;99.90;;;;;;5072664;28;20080;-43
2022/12/13 07:00:07;;;;;;;37.60;15.95;;;-6.10;99.90;;;;;;5072885;28;20083;-45
2022/12/13 07:02:33;;;;;;;41.97;16.40;;;-6.20;99.90;;;;;;5069977;28;20048;-43
2022/12/13 07:04:58;;;;;;;42.88;17.23;;;-6.10;99.90;;;;;;5072810;28;20471;-45
2022/12/13 07:07:25;;;;;;;42.78;17.85;;;-6.10;99.90;;;;;;5072773;28;20029;-42
2022/12/13 07:09:51;;;;;;;42.97;16.92;;;-6.10;99.90;;;;;;5072230;28;20111;-43
2022/12/13 07:12:18;;;;;;;41.25;16.15;;;-6.20;99.90;;;;;;5072160;28;20115;-43
2022/12/13 07:14:43;;;;;;;43.58;16.70;;;-6.10;99.90;;;;;;5072387;28;20396;-43
2022/12/13 07:17:09;;;;;;;44.20;17.63;;;-7.10;99.90;;;;;;5071690;28;20052;-43
2022/12/13 07:19:35;;;;;;;41.25;16.92;;;-6.10;99.90;;;;;;5072225;28;20075;-43
2022/12/13 07:22:01;;;;;;;42.17;17.65;;;-6.00;99.90;;;;;;5072503;28;20044;-46
2022/12/13 07:24:26;;;;;;;40.53;17.05;;;-6.10;99.90;;;;;;5071346;28;20056;-43
2022/12/13 07:26:52;;;;;;;44.30;16.77;;;-6.10;99.90;;;;;;5071262;28;20120;-43
2022/12/13 07:29:18;;;;;;;43.05;17.80;;;-6.20;99.90;;;;;;5072192;28;20028;-43
2022/12/13 07:31:44;;;;;;;57.78;21.73;;;-6.10;99.90;;;;;;5072171;28;20044;-44
2022/12/13 07:34:09;;;;;;;64.18;23.17;;;-6.10;99.90;;;;;;5071878;28;20032;-46
2022/12/13 07:36:35;;;;;;;74.20;25.55;;;-6.10;99.90;;;;;;5072118;28;20083;-44
2022/12/13 07:39:01;;;;;;;68.60;26.20;;;-6.00;99.90;;;;;;5072095;28;20047;-44
2022/12/13 07:41:26;;;;;;;78.30;25.65;;;-6.10;99.90;;;;;;5071909;28;20399;-43
2022/12/13 07:43:53;;;;;;;67.05;24.48;;;-6.00;99.90;;;;;;5071779;28;20033;-43
2022/12/13 07:46:19;;;;;;;70.05;23.33;;;-6.00;99.90;;;;;;5071546;28;20494;-43
2022/12/13 07:48:44;;;;;;;60.63;23.27;;;-6.00;99.90;;;;;;5053916;28;20036;-44
2022/12/13 07:51:11;;;;;;;55.60;21.30;;;-6.10;99.90;;;;;;5071685;28;20041;-43
2022/12/13 07:53:38;;;;;;;56.80;21.02;;;-6.10;99.90;;;;;;5053582;28;20106;-45
2022/12/13 07:56:09;;;;;;;53.83;20.75;;;-6.20;99.90;;;;;;5071455;28;20048;-43
2022/12/13 07:58:35;;;;;;;58.10;22.05;;;-6.00;99.90;;;;;;5070377;28;20043;-43
2022/12/13 08:01:10;;;;;;;56.08;20.75;;;-6.10;99.90;;;;;;5071646;28;20171;-45
2022/12/13 08:03:37;;;;;;;48.92;20.48;;;-6.00;99.90;;;;;;5070773;28;20368;-44
2022/12/13 08:06:08;;;;;;;50.53;20.52;;;-5.80;99.90;;;;;;5049378;28;20064;-45
2022/12/13 08:08:34;;;;;;;49.83;19.98;;;-6.00;99.90;;;;;;5069998;28;20600;-42
2022/12/13 08:11:05;;;;;;;50.53;19.67;;;-5.90;99.90;;;;;;5066914;28;20044;-44
2022/12/13 08:13:32;;;;;;;51.75;19.65;;;-6.00;99.90;;;;;;5065864;28;20102;-44
2022/12/13 08:15:59;;;;;;;45.75;19.40;;;-5.90;99.90;;;;;;5070052;28;20121;-43
2022/12/13 08:18:25;;;;;;;53.90;21.08;;;-5.90;99.90;;;;;;5070147;28;20044;-44
2022/12/13 08:20:51;;;;;;;47.15;19.67;;;-5.90;99.90;;;;;;5069936;28;20048;-43
2022/12/13 08:23:17;;;;;;;49.15;18.33;;;-5.90;99.90;;;;;;5070695;28;20036;-44
2022/12/13 08:25:48;;;;;;;53.88;21.13;;;-5.80;99.90;;;;;;5069299;28;20086;-44
2022/12/13 08:28:14;;;;;;;47.78;18.33;;;-5.90;99.90;;;;;;5069267;28;20112;-43
2022/12/13 08:30:40;;;;;;;50.40;19.98;;;-5.90;99.90;;;;;;5069798;28;20127;-43
2022/12/13 08:33:06;;;;;;;47.05;19.15;;;-5.80;99.90;;;;;;5070273;28;20509;-43
2022/12/13 08:35:32;;;;;;;42.20;17.70;;;-5.90;99.90;;;;;;5069383;28;20041;-42
2022/12/13 08:37:58;;;;;;;54.33;20.30;;;-5.80;99.90;;;;;;5070921;28;20106;-43
2022/12/13 08:40:24;;;;;;;54.75;19.13;;;-5.80;99.90;;;;;;5051984;28;20048;-46
2022/12/13 08:42:49;;;;;;;48.42;19.75;;;-5.70;99.90;;;;;;5063965;28;20115;-43
2022/12/13 08:45:15;;;;;;;49.13;19.55;;;-5.70;99.90;;;;;;5059601;28;20040;-48
2022/12/13 08:47:41;;;;;;;55.20;20.83;;;-5.50;99.90;;;;;;5061662;28;20064;-47
2022/12/13 08:50:06;;;;;;;52.70;20.42;;;-5.60;99.90;;;;;;5060427;28;20189;-43
2022/12/13 08:52:34;;;;;;;55.28;21.27;;;-5.50;99.90;;;;;;5060175;28;20043;-44
2022/12/13 08:55:00;;;;;;;50.90;19.65;;;-5.40;99.90;;;;;;5060745;28;20048;-43
2022/12/13 08:57:26;;;;;;;52.00;19.88;;;-5.40;99.90;;;;;;5039158;28;20048;-44
2022/12/13 08:59:53;;;;;;;66.95;22.92;;;-5.50;99.90;;;;;;5061829;28;20093;-43
2022/12/13 09:02:18;;;;;;;55.78;21.17;;;-5.30;99.90;;;;;;5060715;28;20548;-43
2022/12/13 09:04:44;;;;;;;56.13;21.77;;;-5.30;99.90;;;;;;5060408;28;20032;-45
2022/12/13 09:07:10;;;;;;;55.85;21.60;;;-5.00;99.90;;;;;;5059144;28;20478;-44
2022/12/13 09:09:36;;;;;;;54.38;22.55;;;-5.20;99.90;;;;;;5059991;28;20434;-43
2022/12/13 09:12:02;;;;;;;61.53;23.35;;;-5.00;99.90;;;;;;5041872;28;20668;-44
2022/12/13 09:14:28;;;;;;;64.90;23.77;;;-5.00;99.90;;;;;;5056645;28;20032;-46
2022/12/13 09:16:53;;;;;;;54.20;22.73;;;-5.10;99.90;;;;;;5055927;28;21014;-43
2022/12/13 09:19:19;;;;;;;63.78;23.10;;;-4.90;99.90;;;;;;5054835;28;20029;-44
2022/12/13 09:21:45;;;;;;;58.25;21.90;;;-4.80;99.90;;;;;;5058884;28;20041;-47
2022/12/13 09:24:10;;;;;;;61.15;22.70;;;-5.00;99.90;;;;;;5058868;28;20024;-44
2022/12/13 09:26:36;;;;;;;59.13;22.27;;;-4.70;99.90;;;;;;5058265;28;20037;-45
2022/12/13 09:29:02;;;;;;;67.15;25.15;;;-4.70;99.90;;;;;;5060252;28;20039;-45
2022/12/13 09:31:27;;;;;;;61.90;23.90;;;-4.70;99.90;;;;;;5058507;28;20063;-46
2022/12/13 09:33:53;;;;;;;69.50;26.23;;;-4.70;99.90;;;;;;5059065;28;20563;-44
2022/12/13 09:36:20;;;;;;;61.72;24.67;;;-4.50;99.90;;;;;;5059377;28;20041;-44
2022/12/13 09:38:46;;;;;;;72.25;25.63;;;-4.30;99.90;;;;;;5040179;28;20036;-48
2022/12/13 09:41:25;;;;;;;69.85;25.50;;;-4.20;99.90;;;;;;5059337;28;20037;-44
2022/12/13 09:44:06;;;;;;;69.10;25.67;;;-4.00;99.90;;;;;;5058527;28;20838;-44
2022/12/13 09:46:35;;;;;;;63.00;25.23;;;-4.10;99.90;;;;;;5038649;28;20044;-43
2022/12/13 09:49:03;;;;;;;61.42;25.40;;;-3.90;99.90;;;;;;5056099;28;20060;-45
2022/12/13 09:51:32;;;;;;;66.57;27.67;;;-4.20;99.90;;;;;;5056504;28;20503;-42
2022/12/13 09:53:59;;;;;;;77.82;29.02;;;-3.80;99.90;;;;;;5056846;28;20040;-46
2022/12/13 09:56:25;;;;;;;78.68;31.48;;;-4.10;99.90;;;;;;5057606;28;20124;-44
2022/12/13 09:58:52;;;;;;;92.63;35.65;;;-4.00;99.90;;;;;;5041296;28;20056;-44
2022/12/13 10:01:19;;;;;;;111.43;40.92;;;-3.80;99.90;;;;;;5040972;28;20032;-45
2022/12/13 10:04:00;;;;;;;113.82;42.45;;;-3.90;99.90;;;;;;5058510;28;20468;-49
2022/12/13 10:06:31;;;;;;;111.90;43.25;;;-3.80;99.90;;;;;;5057292;28;20133;-47
2022/12/13 10:08:59;;;;;;;113.95;44.30;;;-3.60;99.90;;;;;;5058287;28;20047;-47
2022/12/13 10:11:26;;;;;;;102.65;43.63;;;-3.00;99.90;;;;;;5058826;28;20525;-46
2022/12/13 10:14:04;;;;;;;98.35;38.47;;;-3.20;99.90;;;;;;5059415;28;20040;-47
2022/12/13 10:16:45;;;;;;;88.10;35.30;;;-3.00;99.90;;;;;;5058161;28;20076;-46
2022/12/13 10:19:18;;;;;;;79.97;31.95;;;-2.70;99.90;;;;;;5024752;28;20055;-50
2022/12/13 10:21:45;;;;;;;62.45;29.23;;;-2.20;99.90;;;;;;5056954;28;20059;-47
2022/12/13 10:24:17;;;;;;;55.45;26.95;;;-1.60;99.90;;;;;;5058100;28;20396;-48
2022/12/13 10:26:43;;;;;;;46.33;23.92;;;-1.00;99.90;;;;;;5058426;28;20506;-44
2022/12/13 10:29:09;;;;;;;48.15;21.55;;;-0.80;99.90;;;;;;5040461;28;20080;-44
2022/12/13 10:31:39;;;;;;;42.70;20.98;;;-0.50;99.90;;;;;;5058711;28;20036;-44
2022/12/13 10:34:14;;;;;;;41.20;20.20;;;-0.20;99.90;;;;;;5056237;28;20509;-46
2022/12/13 10:36:42;;;;;;;37.28;18.92;;;-0.10;99.90;;;;;;5057886;28;20079;-44
2022/12/13 10:39:34;;;;;;;45.15;21.75;;;0.30;99.90;;;;;;5061153;28;20173;-47
2022/12/13 10:42:15;;;;;;;38.70;19.27;;;0.30;99.90;;;;;;5061332;28;20044;-47
2022/12/13 10:44:41;;;;;;;42.42;20.60;;;0.40;99.90;;;;;;5059225;28;20045;-44
2022/12/13 10:47:09;;;;;;;45.70;21.60;;;0.60;99.90;;;;;;5060801;28;20040;-48
2022/12/13 10:49:39;;;;;;;39.55;21.05;;;1.10;99.90;;;;;;5063083;28;20419;-46
2022/12/13 10:52:19;;;;;;;39.00;20.75;;;0.90;99.90;;;;;;5062083;28;20547;-49
2022/12/13 10:54:47;;;;;;;39.35;19.80;;;0.70;99.90;;;;;;5062116;28;20091;-43
2022/12/13 10:57:14;;;;;;;36.92;20.60;;;0.50;99.90;;;;;;5059886;28;20134;-48
2022/12/13 10:59:40;;;;;;;44.63;22.27;;;0.40;99.90;;;;;;5060078;28;20475;-42
2022/12/13 11:02:37;;;;;;;39.90;21.60;;;0.30;99.90;;;;;;5025800;28;20044;-46
2022/12/13 11:05:28;;;;;;;44.75;22.40;;;0.10;99.90;;;;;;5061765;28;20051;-46
2022/12/13 11:07:54;;;;;;;40.67;21.25;;;0.40;99.90;;;;;;5062766;28;20043;-45
2022/12/13 11:10:27;;;;;;;41.00;20.90;;;0.50;99.90;;;;;;5040608;28;20036;-45
2022/12/13 11:13:03;;;;;;;40.95;21.48;;;0.40;99.90;;;;;;5058918;28;20024;-43
2022/12/13 11:15:34;;;;;;;42.35;21.65;;;0.40;99.90;;;;;;5043379;28;20036;-45
2022/12/13 11:18:17;;;;;;;39.22;21.10;;;0.40;99.90;;;;;;5059256;28;20191;-45
2022/12/13 11:20:55;;;;;;;42.92;23.33;;;0.40;99.90;;;;;;5061778;28;20051;-45
2022/12/13 11:23:42;;;;;;;39.60;20.52;;;0.50;99.90;;;;;;5060578;28;20049;-47
2022/12/13 11:26:17;;;;;;;43.08;21.75;;;0.70;99.90;;;;;;5061607;28;20040;-46
2022/12/13 11:28:42;;;;;;;43.10;22.73;;;1.20;99.90;;;;;;5057105;28;20028;-47
2022/12/13 11:31:34;;;;;;;38.65;20.17;;;1.60;99.90;;;;;;5039543;28;20062;-45
2022/12/13 11:34:08;;;;;;;41.92;21.45;;;1.80;99.90;;;;;;5057048;28;20052;-45
2022/12/13 11:36:58;;;;;;;36.92;19.77;;;2.20;99.90;;;;;;5058404;28;20125;-46
2022/12/13 11:39:29;;;;;;;36.50;20.08;;;2.30;99.90;;;;;;5061448;28;20076;-44
2022/12/13 11:42:26;;;;;;;38.67;20.23;;;2.50;99.90;;;;;;5060551;28;20123;-44
2022/12/13 11:45:05;;;;;;;34.38;19.30;;;2.60;99.90;;;;;;5060044;28;20377;-46
2022/12/13 11:47:48;;;;;;;37.47;19.75;;;2.60;99.90;;;;;;5062182;28;20051;-46
2022/12/13 11:50:24;;;;;;;34.22;20.63;;;2.80;99.90;;;;;;5059398;28;20398;-44
2022/12/13 11:52:58;;;;;;;36.33;21.30;;;2.60;99.90;;;;;;5062191;28;20032;-45
2022/12/13 11:55:38;;;;;;;36.05;21.83;;;2.70;99.90;;;;;;5060233;28;20541;-45
2022/12/13 11:58:25;;;;;;;38.20;21.45;;;2.70;99.90;;;;;;5060097;28;20052;-44
2022/12/13 12:01:12;;;;;;;36.63;23.10;;;2.70;99.90;;;;;;5062852;28;20076;-47
2022/12/13 12:03:46;;;;;;;33.75;21.75;;;2.60;99.90;;;;;;5061323;28;20042;-47
2022/12/13 12:06:24;;;;;;;37.80;22.05;;;2.50;99.90;;;;;;5059969;28;21832;-44
2022/12/13 12:08:59;;;;;;;37.78;23.73;;;2.50;99.90;;;;;;5062429;28;20033;-45
2022/12/13 12:11:46;;;;;;;38.05;23.70;;;2.40;99.90;;;;;;5053299;28;20052;-45
2022/12/13 12:14:31;;;;;;;38.55;23.42;;;2.40;99.90;;;;;;5055456;28;20090;-45
2022/12/13 12:16:58;;;;;;;35.15;22.92;;;2.40;99.90;;;;;;5043035;28;20435;-46
2022/12/13 12:19:54;;;;;;;36.92;23.42;;;2.30;99.90;;;;;;5041268;28;20032;-44
2022/12/13 12:22:34;;;;;;;35.63;22.58;;;3.30;99.90;;;;;;5041701;28;20135;-44
2022/12/13 12:25:06;;;;;;;36.67;23.48;;;2.30;99.90;;;;;;5059558;28;20131;-43
2022/12/13 12:27:46;;;;;;;41.00;24.55;;;2.20;99.90;;;;;;5042278;28;20415;-45
2022/12/13 12:30:18;;;;;;;36.50;23.77;;;2.30;99.90;;;;;;5059034;28;20033;-48
2022/12/13 12:32:53;;;;;;;39.40;23.50;;;2.30;99.90;;;;;;5060498;28;20060;-46
2022/12/13 12:35:50;;;;;;;38.00;24.30;;;2.30;99.90;;;;;;5059246;28;20032;-47
2022/12/13 12:38:43;;;;;;;40.28;25.58;;;2.40;99.90;;;;;;5058491;28;20377;-47
2022/12/13 12:41:20;;;;;;;40.72;24.40;;;2.40;99.90;;;;;;5057342;28;20179;-47
2022/12/13 12:44:04;;;;;;;40.42;25.23;;;2.60;99.90;;;;;;5057343;28;20052;-44
2022/12/13 12:46:54;;;;;;;40.57;24.03;;;2.70;99.90;;;;;;5040339;28;20472;-44
2022/12/13 12:49:48;;;;;;;34.10;22.00;;;2.80;99.90;;;;;;5058914;28;20052;-44